createdAt,value
2019-03-27T00:01:40.814Z,101023.94
2019-03-27T00:05:44.273Z,101024.97
2019-03-27T00:09:47.855Z,101027.64
2019-03-27T00:13:51.646Z,101021.54
2019-03-27T00:17:55.501Z,101023.27
2019-03-27T00:21:59.288Z,101022.12
2019-03-27T00:26:02.778Z,101020.71
2019-03-27T00:30:06.693Z,101027.28
2019-03-27T00:34:10.372Z,101025.05
2019-03-27T00:38:13.821Z,101028.27
2019-03-27T00:42:17.400Z,101025.45
2019-03-27T00:46:20.824Z,101025.89
2019-03-27T00:50:24.367Z,101027.48
2019-03-27T00:54:27.816Z,101036.19
2019-03-27T00:58:31.414Z,101038.54
2019-03-27T01:02:35.090Z,101037.98
2019-03-27T01:06:38.654Z,101041.96
2019-03-27T01:10:42.071Z,101038.41
2019-03-27T01:14:45.765Z,101029.75
2019-03-27T01:18:49.308Z,101035.77
2019-03-27T01:22:52.959Z,101036.20
2019-03-27T01:26:57.383Z,101038.62
2019-03-27T01:31:01.128Z,101043.58
2019-03-27T01:35:04.980Z,101044.88
2019-03-27T01:39:10.020Z,101050.00
2019-03-27T01:43:13.528Z,101049.21
2019-03-27T01:47:17.117Z,101050.30
2019-03-27T01:51:20.555Z,101053.05
2019-03-27T01:55:24.158Z,101054.84
2019-03-27T01:59:27.688Z,101057.14
2019-03-27T02:03:31.510Z,101062.92
2019-03-27T02:07:35.016Z,101066.12
2019-03-27T02:11:39.513Z,101067.12
2019-03-27T02:15:42.985Z,101071.08
2019-03-27T02:19:46.521Z,101067.67
2019-03-27T02:23:50.076Z,101065.05
2019-03-27T02:27:53.667Z,101074.13
2019-03-27T02:31:59.544Z,101081.14
2019-03-27T02:36:03.242Z,101076.75
2019-03-27T02:40:07.362Z,101070.22
2019-03-27T02:44:10.990Z,101072.88
2019-03-27T02:48:14.997Z,101078.62
2019-03-27T02:52:19.951Z,101074.80
2019-03-27T02:56:23.370Z,101077.91
2019-03-27T03:00:27.153Z,101083.14
2019-03-27T03:04:30.759Z,101077.98
2019-03-27T03:08:34.416Z,101081.91
2019-03-27T03:12:38.062Z,101086.22
2019-03-27T03:16:43.433Z,101087.05
2019-03-27T03:20:47.073Z,101087.86
2019-03-27T03:24:50.939Z,101100.82
2019-03-27T03:28:55.447Z,101095.27
2019-03-27T03:32:59.948Z,101093.56
2019-03-27T03:37:03.563Z,101101.80
2019-03-27T03:41:07.368Z,101110.45
2019-03-27T03:45:11.244Z,101113.55
2019-03-27T03:49:14.752Z,101115.72
2019-03-27T03:53:18.479Z,101110.56
2019-03-27T03:57:25.392Z,101118.31
2019-03-27T04:01:31.327Z,101119.20
2019-03-27T04:05:34.943Z,101127.39
2019-03-27T04:09:38.563Z,101134.75
2019-03-27T04:13:42.295Z,101133.48
2019-03-27T04:17:45.921Z,101133.48
2019-03-27T04:21:49.538Z,101137.37
2019-03-27T04:26:09.070Z,101142.56
2019-03-27T04:29:58.340Z,101146.45
2019-03-27T04:34:01.877Z,101144.27
2019-03-27T04:38:05.493Z,101146.44
2019-03-27T04:42:08.969Z,101143.84
2019-03-27T04:46:12.555Z,101148.13
2019-03-27T04:50:16.233Z,101151.16
2019-03-27T04:54:19.749Z,101155.02
2019-03-27T04:58:23.243Z,101157.08
2019-03-27T05:02:27.011Z,101158.72
2019-03-27T05:06:30.704Z,101166.44
2019-03-27T05:10:34.294Z,101162.04
2019-03-27T05:14:37.803Z,101161.94
2019-03-27T05:18:41.295Z,101166.14
2019-03-27T05:22:44.896Z,101163.36
2019-03-27T05:26:48.507Z,101172.11
2019-03-27T05:30:52.037Z,101177.00
2019-03-27T05:34:55.891Z,101182.20
2019-03-27T05:38:59.360Z,101180.59
2019-03-27T05:43:03.056Z,101180.19
2019-03-27T05:47:06.553Z,101182.39
2019-03-27T05:51:10.181Z,101173.41
2019-03-27T05:55:13.711Z,101168.30
2019-03-27T05:59:17.259Z,101167.08
2019-03-27T06:03:20.710Z,101166.95
2019-03-27T06:07:24.316Z,101165.20
2019-03-27T06:11:27.873Z,101160.32
2019-03-27T06:15:31.539Z,101158.17
2019-03-27T06:19:35.062Z,101159.22
2019-03-27T06:23:38.735Z,101157.56
2019-03-27T06:27:42.301Z,101156.16
2019-03-27T06:31:45.893Z,101162.64
2019-03-27T06:35:49.423Z,101163.39
2019-03-27T06:39:53.043Z,101176.55
2019-03-27T06:43:56.569Z,101181.44
2019-03-27T06:48:00.114Z,101175.84
2019-03-27T06:52:03.561Z,101177.84
2019-03-27T06:56:07.012Z,101179.80
2019-03-27T07:00:12.526Z,101184.38
2019-03-27T07:04:16.992Z,101188.80
2019-03-27T07:08:20.473Z,101196.07
2019-03-27T07:12:25.618Z,101190.92
2019-03-27T07:16:29.193Z,101188.41
2019-03-27T07:20:32.788Z,101187.44
2019-03-27T07:24:36.444Z,101187.88
2019-03-27T07:28:39.900Z,101185.41
2019-03-27T07:32:43.386Z,101193.18
2019-03-27T07:36:46.964Z,101204.11
2019-03-27T07:40:50.429Z,101201.37
2019-03-27T07:44:54.363Z,101214.59
2019-03-27T07:48:58.182Z,101216.66
2019-03-27T07:53:01.852Z,101215.70
2019-03-27T07:57:05.521Z,101212.30
2019-03-27T08:01:09.024Z,101216.05
2019-03-27T08:05:12.700Z,101207.41
2019-03-27T08:09:16.320Z,101213.30
2019-03-27T08:13:19.806Z,101223.13
2019-03-27T08:17:23.784Z,101226.53
2019-03-27T08:21:27.235Z,101224.65
2019-03-27T08:25:30.944Z,101233.30
2019-03-27T08:29:34.577Z,101228.25
2019-03-27T08:33:38.271Z,101232.75
2019-03-27T08:37:41.711Z,101230.73
2019-03-27T08:41:45.387Z,101236.09
2019-03-27T08:45:49.781Z,101239.09
2019-03-27T08:49:53.444Z,101238.64
2019-03-27T08:53:57.057Z,101250.69
2019-03-27T08:58:00.745Z,101252.94
2019-03-27T09:02:04.294Z,101249.12
2019-03-27T09:06:07.873Z,101244.64
2019-03-27T09:10:12.072Z,101250.41
2019-03-27T09:14:15.556Z,101251.55
2019-03-27T09:18:20.807Z,101257.59
2019-03-27T09:22:24.542Z,101256.50
2019-03-27T09:26:28.038Z,101261.08
2019-03-27T09:30:31.872Z,101259.41
2019-03-27T09:34:35.482Z,101258.23
2019-03-27T09:38:39.159Z,101259.72
2019-03-27T09:42:42.725Z,101247.36
2019-03-27T09:46:46.359Z,101249.11
2019-03-27T09:50:50.818Z,101254.19
2019-03-27T09:54:54.405Z,101247.70
2019-03-27T09:58:58.237Z,101246.81
2019-03-27T10:03:02.418Z,101250.37
2019-03-27T10:07:06.090Z,101249.82
2019-03-27T10:11:09.689Z,101241.91
2019-03-27T10:15:15.098Z,101246.89
2019-03-27T10:19:20.335Z,101244.52
2019-03-27T10:23:24.840Z,101243.87
2019-03-27T10:27:28.502Z,101246.20
2019-03-27T10:31:32.190Z,101242.79
2019-03-27T10:35:35.882Z,101236.11
2019-03-27T10:39:39.434Z,101241.47
2019-03-27T10:43:43.364Z,101245.77
2019-03-27T10:47:46.832Z,101245.87
2019-03-27T10:51:50.420Z,101239.64
2019-03-27T10:55:54.018Z,101240.50
2019-03-27T10:59:57.657Z,101246.02
2019-03-27T11:04:00.966Z,101251.84
2019-03-27T11:08:04.468Z,101248.41
2019-03-27T11:12:07.935Z,101243.84
2019-03-27T11:16:11.418Z,101237.69
2019-03-27T11:20:16.223Z,101243.38
2019-03-27T11:24:20.115Z,101234.48
2019-03-27T11:28:23.461Z,101240.91
2019-03-27T11:32:27.008Z,101242.45
2019-03-27T11:36:30.258Z,101244.23
2019-03-27T11:40:33.633Z,101241.16
2019-03-27T11:44:37.013Z,101243.12
2019-03-27T11:48:40.384Z,101242.66
2019-03-27T11:52:43.693Z,101241.13
2019-03-27T11:56:47.688Z,101239.80
2019-03-27T12:00:54.750Z,101244.27
2019-03-27T12:04:56.238Z,101234.19
2019-03-27T12:09:00.426Z,101234.52
2019-03-27T12:13:05.289Z,101236.83
2019-03-27T12:17:08.808Z,101230.12
2019-03-27T12:21:12.135Z,101233.05
2019-03-27T12:25:15.910Z,101232.58
2019-03-27T12:29:20.346Z,101234.63
2019-03-27T12:33:23.875Z,101233.00
2019-03-27T12:37:28.057Z,101232.55
2019-03-27T12:46:47.047Z,101237.63
2019-03-27T12:50:56.535Z,101238.91
2019-03-27T12:55:00.380Z,101243.81
2019-03-27T12:59:03.969Z,101245.14
2019-03-27T13:03:08.155Z,101246.82
2019-03-27T13:07:11.862Z,101245.78
2019-03-27T13:11:15.571Z,101248.03
2019-03-27T13:15:19.176Z,101256.31
2019-03-27T13:19:23.087Z,101254.56
2019-03-27T13:23:26.516Z,101253.11
2019-03-27T13:27:29.854Z,101251.64
2019-03-27T13:31:33.303Z,101259.06
2019-03-27T13:35:36.856Z,101259.13
2019-03-27T13:39:40.310Z,101250.20
2019-03-27T13:43:43.974Z,101246.66
2019-03-27T13:47:48.418Z,101246.05
2019-03-27T13:51:52.053Z,101246.97
2019-03-27T13:55:56.455Z,101253.52
2019-03-27T14:00:00.282Z,101245.50
2019-03-27T14:04:03.703Z,101255.22
2019-03-27T14:08:07.387Z,101262.42
2019-03-27T14:12:10.647Z,101260.09
2019-03-27T14:16:14.117Z,101264.16
2019-03-27T14:20:17.727Z,101259.39
2019-03-27T14:24:21.331Z,101250.47
2019-03-27T14:28:24.792Z,101253.50
2019-03-27T14:32:29.851Z,101252.64
2019-03-27T14:36:34.376Z,101256.05
2019-03-27T14:40:38.317Z,101262.66
2019-03-27T14:44:41.774Z,101262.84
2019-03-27T14:48:45.513Z,101271.22
2019-03-27T14:52:49.286Z,101282.16
2019-03-27T14:56:53.183Z,101289.61
2019-03-27T15:00:56.619Z,101290.04
2019-03-27T15:05:00.339Z,101293.89
2019-03-27T15:09:04.973Z,101297.14
2019-03-27T15:13:09.247Z,101294.64
2019-03-27T15:17:12.749Z,101295.65
2019-03-27T15:21:18.142Z,101300.36
2019-03-27T15:25:21.566Z,101296.94
2019-03-27T15:29:24.963Z,101301.11
2019-03-27T15:33:28.402Z,101297.23
2019-03-27T15:37:31.754Z,101294.73
2019-03-27T15:41:36.089Z,101298.83
2019-03-27T15:45:39.450Z,101297.08
2019-03-27T15:49:42.700Z,101291.86
2019-03-27T15:53:47.431Z,101290.05
2019-03-27T15:57:51.088Z,101279.13
2019-03-27T16:01:57.749Z,101272.87
2019-03-27T16:05:59.809Z,101281.78
2019-03-27T16:10:03.447Z,101274.02
2019-03-27T16:14:06.832Z,101274.15
2019-03-27T16:18:10.494Z,101271.22
2019-03-27T16:22:13.799Z,101274.03
2019-03-27T16:26:17.408Z,101269.88
2019-03-27T16:30:21.233Z,101266.11
2019-03-27T16:34:25.401Z,101274.98
2019-03-27T16:38:32.167Z,101282.88
2019-03-27T16:42:36.984Z,101291.02
2019-03-27T16:46:40.590Z,101290.41
2019-03-27T16:50:45.066Z,101275.89
2019-03-27T16:54:49.915Z,101261.04
2019-03-27T16:58:54.363Z,101270.61
2019-03-27T17:02:58.102Z,101271.95
2019-03-27T17:07:01.865Z,101277.11
2019-03-27T17:11:07.401Z,101280.23
2019-03-27T17:15:12.684Z,101286.09
2019-03-27T17:19:16.196Z,101293.47
2019-03-27T17:23:19.778Z,101292.27
2019-03-27T17:27:23.387Z,101294.53
2019-03-27T17:31:27.008Z,101308.19
2019-03-27T17:35:30.764Z,101318.28
2019-03-27T17:39:34.789Z,101320.80
2019-03-27T17:43:38.476Z,101323.70
2019-03-27T17:47:42.055Z,101333.37
2019-03-27T17:51:45.532Z,101332.28
2019-03-27T17:55:49.182Z,101332.27
2019-03-27T17:59:52.637Z,101328.22
2019-03-27T18:03:56.293Z,101328.22
2019-03-27T18:08:00.162Z,101327.31
2019-03-27T18:12:03.840Z,101329.53
2019-03-27T18:16:07.435Z,101328.70
2019-03-27T18:20:11.505Z,101325.20
2019-03-27T18:24:15.079Z,101317.02
2019-03-27T18:28:18.818Z,101309.02
2019-03-27T18:32:22.334Z,101309.70
2019-03-27T18:36:25.864Z,101313.45
2019-03-27T18:40:29.750Z,101306.31
2019-03-27T18:44:33.310Z,101314.87
2019-03-27T18:48:36.756Z,101337.05
2019-03-27T18:52:40.375Z,101337.78
2019-03-27T18:56:44.736Z,101336.11
2019-03-27T19:00:48.250Z,101342.57
2019-03-27T19:04:51.803Z,101340.97
2019-03-27T19:08:56.727Z,101349.50
2019-03-27T19:13:00.229Z,101356.58
2019-03-27T19:17:03.895Z,101336.67
2019-03-27T19:21:07.459Z,101334.45
2019-03-27T19:25:11.289Z,101325.47
2019-03-27T19:29:14.837Z,101319.39
2019-03-27T19:33:18.576Z,101318.19
2019-03-27T19:37:21.948Z,101318.41
2019-03-27T19:41:25.623Z,101323.33
2019-03-27T19:45:29.320Z,101327.11
2019-03-27T19:49:33.032Z,101326.08
2019-03-27T19:53:37.088Z,101326.67
2019-03-27T19:57:40.723Z,101335.11
2019-03-27T20:01:44.176Z,101338.64
2019-03-27T20:05:47.712Z,101332.14
2019-03-27T20:09:51.231Z,101342.27
2019-03-27T20:13:54.854Z,101340.52
2019-03-27T20:17:58.472Z,101331.94
2019-03-27T20:22:01.989Z,101333.46
2019-03-27T20:26:05.582Z,101330.53
2019-03-27T20:30:11.837Z,101330.59
2019-03-27T20:34:15.467Z,101340.38
2019-03-27T20:38:19.095Z,101350.67
2019-03-27T20:42:22.766Z,101337.41
2019-03-27T20:46:29.287Z,101335.02
2019-03-27T20:50:31.814Z,101337.67
2019-03-27T20:54:35.342Z,101341.09
2019-03-27T20:58:39.056Z,101348.66
2019-03-27T21:02:42.974Z,101355.80
2019-03-27T21:06:46.599Z,101355.91
2019-03-27T21:10:50.126Z,101351.15
2019-03-27T21:14:53.709Z,101354.22
2019-03-27T21:18:57.360Z,101368.02
2019-03-27T21:23:00.870Z,101361.58
2019-03-27T21:27:04.503Z,101359.47
2019-03-27T21:31:08.010Z,101369.25
2019-03-27T21:35:11.738Z,101381.10
2019-03-27T21:39:15.415Z,101387.38
2019-03-27T21:43:19.210Z,101384.11
2019-03-27T21:47:22.993Z,101380.58
2019-03-27T21:51:26.560Z,101385.72
2019-03-27T21:55:42.189Z,101388.14
2019-03-27T21:59:35.139Z,101390.13
2019-03-27T22:03:38.646Z,101384.34
2019-03-27T22:07:42.309Z,101387.83
2019-03-27T22:11:45.765Z,101387.11
2019-03-27T22:15:49.341Z,101393.02
2019-03-27T22:19:52.790Z,101402.48
2019-03-27T22:23:56.703Z,101397.22
2019-03-27T22:28:00.374Z,101390.77
2019-03-27T22:32:04.032Z,101395.36
2019-03-27T22:36:07.506Z,101404.75
2019-03-27T22:40:11.274Z,101402.78
2019-03-27T22:44:15.029Z,101412.09
2019-03-27T22:48:20.042Z,101401.74
2019-03-27T22:52:23.546Z,101408.80
2019-03-27T22:56:28.237Z,101409.36
2019-03-27T23:00:40.509Z,101404.66
2019-03-27T23:04:45.675Z,101413.13
2019-03-27T23:08:49.137Z,101402.98
2019-03-27T23:12:53.022Z,101403.55
2019-03-27T23:16:56.481Z,101405.64
2019-03-27T23:21:00.887Z,101410.43
2019-03-27T23:25:04.678Z,101410.88
2019-03-27T23:29:08.350Z,101414.35
2019-03-27T23:33:11.902Z,101418.25
2019-03-27T23:37:15.665Z,101412.02
2019-03-27T23:41:19.186Z,101417.94
2019-03-27T23:45:22.870Z,101418.09
2019-03-27T23:49:26.404Z,101429.11
2019-03-27T23:53:30.007Z,101426.77
2019-03-27T23:57:33.730Z,101426.41
